Darstellungsparameter: Aktuell verwendete Einstellungen:
Skalierung der Graphiken ... ?
xyx+y,   Skalierungsfaktor:      Skalierung: Modus: x, Faktor: 1
Darstellungszeitraum ... ?
Vom - - bis: - -   Zeitraum: 19.03.2021 - 19.03.2021
Min/Max/Avg-Anzeige ... ?
Zeige MMA aktuell
Zeige MMA Monat
Zeige MMA alles
Zeige --A aktuell
Zeige --A Monat
Zeige --A alles
Keine MMA-Anzeige
MMA:
Keine MMA-Graphiken
MMA-Basis: 19.03.2021 - 19.03.2021
Quicknavigation für Darstellung... ?
Tage:      1T, 2T, 3T, 5T -1T -2T -3T -5T +1T +2T +3T +5T
Wochen: 1W, 2W, 3W -1W -2W -3W +1W +2W +3W
Monate: 1M, 3M, 6M -1M -3M -6M +1M +3M +6M
Jahre:    1J, 3J, 5J, 10J -1J -3J -5J -10J +1J +3J +5J +10J
Nutze für die Darstellung ... ?
Originaldaten oder Mittelwerte auf ...
Stundenbasis Tagesbasis Wochenbasis
Monatsbasis Jahresbasis      Datenbasis: Original-Daten
Darstellen als:
Statistik (Auto) Statistik J:M      Darstellung:
Zur Graphik,    zurück zur Übersicht aller Sensoren.
 
Tabellarische Datenbersicht: ?
 
Sensor: Nr:Datum:Temp:Feuchte:Taupunkt:
Aussen-T/F 1 19-03-2021 00:00:00 3.2 C 92 % 2.03 C
2 19-03-2021 00:05:00 3.1 C 92 % 1.93 C
3 19-03-2021 00:10:00 2.9 C 92 % 1.73 C
4 19-03-2021 00:15:00 2.8 C 92 % 1.63 C
5 19-03-2021 00:20:00 2.7 C 92 % 1.53 C
6 19-03-2021 00:25:00 2.6 C 92 % 1.43 C
7 19-03-2021 00:30:00 2.5 C 92 % 1.34 C
8 19-03-2021 00:35:00 2.4 C 92 % 1.24 C
9 19-03-2021 00:40:00 2.3 C 92 % 1.14 C
10 19-03-2021 00:45:00 2.3 C 93 % 1.29 C
11 19-03-2021 00:50:00 2.2 C 92 % 1.04 C
12 19-03-2021 00:55:00 2.1 C 92 % 0.94 C
13 19-03-2021 01:00:00 2.1 C 93 % 1.09 C
14 19-03-2021 01:05:00 2 C 93 % 0.99 C
15 19-03-2021 01:10:00 2 C 93 % 0.99 C
16 19-03-2021 01:15:00 2 C 93 % 0.99 C
17 19-03-2021 01:20:00 1.9 C 93 % 0.89 C
18 19-03-2021 01:25:00 2 C 93 % 0.99 C
19 19-03-2021 01:30:00 2 C 93 % 0.99 C
20 19-03-2021 01:35:00 2 C 93 % 0.99 C
21 19-03-2021 01:40:00 2.1 C 93 % 1.09 C
22 19-03-2021 01:45:00 2.1 C 94 % 1.24 C
23 19-03-2021 01:50:00 2.1 C 94 % 1.24 C
24 19-03-2021 01:55:00 2.1 C 94 % 1.24 C
25 19-03-2021 02:00:00 2.1 C 94 % 1.24 C
Sensor: Nr:Datum:Temp:Feuchte:Taupunkt:
Aussen-T/F 26 19-03-2021 02:05:00 2.1 C 94 % 1.24 C
27 19-03-2021 02:10:00 2.1 C 94 % 1.24 C
28 19-03-2021 02:15:00 2.2 C 94 % 1.34 C
29 19-03-2021 02:20:00 2.2 C 94 % 1.34 C
30 19-03-2021 02:25:00 2.2 C 94 % 1.34 C
31 19-03-2021 02:30:00 2.2 C 94 % 1.34 C
32 19-03-2021 02:35:00 2.2 C 94 % 1.34 C
33 19-03-2021 02:40:00 2.2 C 94 % 1.34 C
34 19-03-2021 02:45:00 2.2 C 94 % 1.34 C
35 19-03-2021 02:50:00 2.2 C 94 % 1.34 C
36 19-03-2021 02:55:00 2.2 C 94 % 1.34 C
37 19-03-2021 03:00:00 2.3 C 94 % 1.44 C
38 19-03-2021 03:05:00 2.3 C 95 % 1.58 C
39 19-03-2021 03:10:00 2.3 C 95 % 1.58 C
40 19-03-2021 03:15:00 2.4 C 95 % 1.68 C
41 19-03-2021 03:20:00 2.4 C 95 % 1.68 C
42 19-03-2021 03:25:00 2.4 C 95 % 1.68 C
43 19-03-2021 03:30:00 2.4 C 95 % 1.68 C
44 19-03-2021 03:35:00 2.5 C 95 % 1.78 C
45 19-03-2021 03:40:00 2.5 C 95 % 1.78 C
46 19-03-2021 03:45:00 2.5 C 95 % 1.78 C
47 19-03-2021 03:50:00 2.6 C 95 % 1.88 C
48 19-03-2021 03:55:00 2.6 C 95 % 1.88 C
49 19-03-2021 04:00:00 2.6 C 95 % 1.88 C
50 19-03-2021 04:05:00 2.6 C 95 % 1.88 C
Sensor: Nr:Datum:Temp:Feuchte:Taupunkt:
Aussen-T/F 51 19-03-2021 04:10:00 2.6 C 95 % 1.88 C
52 19-03-2021 04:15:00 2.6 C 95 % 1.88 C
53 19-03-2021 04:20:00 2.6 C 95 % 1.88 C
54 19-03-2021 04:25:00 2.6 C 95 % 1.88 C
55 19-03-2021 04:30:00 2.6 C 95 % 1.88 C
56 19-03-2021 04:35:00 2.6 C 95 % 1.88 C
57 19-03-2021 04:40:00 2.6 C 95 % 1.88 C
58 19-03-2021 04:45:00 2.6 C 95 % 1.88 C
59 19-03-2021 04:50:00 2.6 C 95 % 1.88 C
60 19-03-2021 04:55:00 2.6 C 95 % 1.88 C
61 19-03-2021 05:00:00 2.6 C 95 % 1.88 C
62 19-03-2021 05:05:00 2.6 C 95 % 1.88 C
63 19-03-2021 05:10:00 2.6 C 95 % 1.88 C
64 19-03-2021 05:15:00 2.5 C 95 % 1.78 C
65 19-03-2021 05:20:00 2.5 C 95 % 1.78 C
66 19-03-2021 05:25:00 2.4 C 95 % 1.68 C
67 19-03-2021 05:30:00 2.3 C 95 % 1.58 C
68 19-03-2021 05:35:00 2.3 C 95 % 1.58 C
69 19-03-2021 05:40:00 2.2 C 95 % 1.48 C
70 19-03-2021 05:45:00 2.1 C 95 % 1.38 C
71 19-03-2021 05:50:00 2.1 C 95 % 1.38 C
72 19-03-2021 05:55:00 2.2 C 95 % 1.48 C
73 19-03-2021 06:00:00 2.2 C 95 % 1.48 C
74 19-03-2021 06:05:00 2.2 C 95 % 1.48 C
75 19-03-2021 06:10:00 2.1 C 95 % 1.38 C
Sensor: Nr:Datum:Temp:Feuchte:Taupunkt:
Aussen-T/F 76 19-03-2021 06:15:00 1.9 C 95 % 1.19 C
77 19-03-2021 06:20:00 1.8 C 95 % 1.09 C
78 19-03-2021 06:25:00 1.6 C 95 % 0.89 C
79 19-03-2021 06:30:00 1.4 C 95 % 0.69 C
80 19-03-2021 06:35:00 1.3 C 95 % 0.59 C
81 19-03-2021 06:40:00 1.3 C 95 % 0.59 C
82 19-03-2021 06:45:00 1.3 C 95 % 0.59 C
83 19-03-2021 06:50:00 1.3 C 95 % 0.59 C
84 19-03-2021 06:55:00 1.3 C 95 % 0.59 C
85 19-03-2021 07:00:00 1.3 C 95 % 0.59 C
86 19-03-2021 07:05:00 1.3 C 95 % 0.59 C
87 19-03-2021 07:10:00 1.3 C 95 % 0.59 C
88 19-03-2021 07:15:00 1.3 C 95 % 0.59 C
89 19-03-2021 07:20:00 1.2 C 95 % 0.49 C
90 19-03-2021 07:25:00 1.3 C 95 % 0.59 C
91 19-03-2021 07:30:00 1.3 C 95 % 0.59 C
92 19-03-2021 07:35:00 1.3 C 95 % 0.59 C
93 19-03-2021 07:40:00 1.4 C 95 % 0.69 C
94 19-03-2021 07:45:00 1.4 C 95 % 0.69 C
95 19-03-2021 07:50:00 1.4 C 95 % 0.69 C
96 19-03-2021 07:55:00 1.3 C 95 % 0.59 C
97 19-03-2021 08:00:00 1.3 C 95 % 0.59 C
98 19-03-2021 08:05:00 1.3 C 95 % 0.59 C
99 19-03-2021 08:10:00 1.2 C 95 % 0.49 C
100 19-03-2021 08:15:00 1.3 C 96 % 0.73 C
Sensor: Nr:Datum:Temp:Feuchte:Taupunkt:
Aussen-T/F 101 19-03-2021 08:20:00 1.4 C 96 % 0.83 C
102 19-03-2021 08:25:00 1.7 C 96 % 1.13 C
103 19-03-2021 08:30:00 1.8 C 96 % 1.23 C
104 19-03-2021 08:35:00 1.9 C 95 % 1.19 C
105 19-03-2021 08:40:00 2 C 94 % 1.14 C
106 19-03-2021 08:45:00 2.2 C 93 % 1.19 C
107 19-03-2021 08:50:00 2.3 C 93 % 1.29 C
108 19-03-2021 08:55:00 2.4 C 92 % 1.24 C
109 19-03-2021 09:00:00 2.6 C 91 % 1.28 C
110 19-03-2021 09:05:00 2.8 C 91 % 1.48 C
111 19-03-2021 09:10:00 2.9 C 89 % 1.27 C
112 19-03-2021 09:15:00 2.9 C 87 % 0.96 C
113 19-03-2021 09:20:00 3.1 C 87 % 1.15 C
114 19-03-2021 09:25:00 3.1 C 87 % 1.15 C
115 19-03-2021 09:30:00 3.2 C 86 % 1.09 C
116 19-03-2021 09:35:00 3.3 C 86 % 1.19 C
117 19-03-2021 09:40:00 3.3 C 85 % 1.03 C
118 19-03-2021 09:45:00 3.3 C 84 % 0.86 C
119 19-03-2021 09:50:00 3.4 C 84 % 0.96 C
120 19-03-2021 09:55:00 3.6 C 83 % 0.99 C
121 19-03-2021 10:00:00 3.7 C 84 % 1.25 C
122 19-03-2021 10:05:00 3.8 C 83 % 1.19 C
123 19-03-2021 10:10:00 3.8 C 81 % 0.85 C
124 19-03-2021 10:15:00 3.9 C 80 % 0.77 C
125 19-03-2021 10:20:00 3.9 C 79 % 0.6 C
Sensor: Nr:Datum:Temp:Feuchte:Taupunkt:
Aussen-T/F 126 19-03-2021 10:25:00 3.9 C 80 % 0.77 C
127 19-03-2021 10:30:00 3.9 C 78 % 0.42 C
128 19-03-2021 10:35:00 3.9 C 78 % 0.42 C
129 19-03-2021 10:40:00 3.9 C 79 % 0.6 C
130 19-03-2021 10:45:00 4 C 80 % 0.87 C
131 19-03-2021 10:50:00 4.1 C 78 % 0.62 C
132 19-03-2021 10:55:00 4.4 C 76 % 0.55 C
133 19-03-2021 11:00:00 4.8 C 73 % 0.38 C
134 19-03-2021 11:05:00 5.1 C 70 % 0.09 C
135 19-03-2021 11:10:00 5.3 C 70 % 0.28 C
136 19-03-2021 11:15:00 5.4 C 67 % -0.22 C
137 19-03-2021 11:20:00 5.5 C 68 % 0.08 C
138 19-03-2021 11:25:00 5.4 C 67 % -0.22 C
139 19-03-2021 11:30:00 5.3 C 66 % -0.52 C
140 19-03-2021 11:35:00 5.3 C 66 % -0.52 C
141 19-03-2021 11:40:00 5.6 C 65 % -0.45 C
142 19-03-2021 11:45:00 6 C 62 % -0.71 C
143 19-03-2021 11:50:00 6.3 C 60 % -0.88 C
144 19-03-2021 11:55:00 6.3 C 57 % -1.58 C
145 19-03-2021 12:00:00 6.3 C 58 % -1.34 C
146 19-03-2021 12:05:00 6.3 C 58 % -1.34 C
147 19-03-2021 12:10:00 6.2 C 57 % -1.67 C
148 19-03-2021 12:15:00 6.3 C 57 % -1.58 C
149 19-03-2021 12:20:00 6.5 C 55 % -1.87 C
150 19-03-2021 12:25:00 6.7 C 53 % -2.19 C
Sensor: Nr:Datum:Temp:Feuchte:Taupunkt:
Aussen-T/F 151 19-03-2021 12:30:00 6.8 C 51 % -2.61 C
152 19-03-2021 12:35:00 6.9 C 50 % -2.79 C
153 19-03-2021 12:40:00 7.1 C 50 % -2.6 C
154 19-03-2021 12:45:00 7.2 C 49 % -2.78 C
155 19-03-2021 12:50:00 7.3 C 50 % -2.42 C
156 19-03-2021 12:55:00 7.3 C 47 % -3.25 C
157 19-03-2021 13:00:00 7.2 C 50 % -2.51 C
158 19-03-2021 13:05:00 7 C 49 % -2.97 C
159 19-03-2021 13:10:00 6.8 C 50 % -2.88 C
160 19-03-2021 13:15:00 6.7 C 52 % -2.44 C
161 19-03-2021 13:20:00 6.9 C 51 % -2.52 C
162 19-03-2021 13:25:00 7.1 C 51 % -2.34 C
163 19-03-2021 13:30:00 7.3 C 52 % -1.89 C
164 19-03-2021 13:35:00 7.6 C 53 % -1.35 C
165 19-03-2021 13:40:00 7.8 C 50 % -1.96 C
166 19-03-2021 13:45:00 7.7 C 49 % -2.32 C
167 19-03-2021 13:50:00 7.7 C 50 % -2.05 C
168 19-03-2021 13:55:00 7.6 C 51 % -1.87 C
169 19-03-2021 14:00:00 7.6 C 51 % -1.87 C
170 19-03-2021 14:05:00 7.6 C 49 % -2.41 C
171 19-03-2021 14:10:00 7.5 C 49 % -2.51 C
172 19-03-2021 14:15:00 7.3 C 53 % -1.63 C
173 19-03-2021 14:20:00 7.3 C 53 % -1.63 C
174 19-03-2021 14:25:00 7.4 C 52 % -1.8 C
175 19-03-2021 14:30:00 7.5 C 51 % -1.97 C
Sensor: Nr:Datum:Temp:Feuchte:Taupunkt:
Aussen-T/F 176 19-03-2021 14:35:00 7.7 C 52 % -1.52 C
177 19-03-2021 14:40:00 7.8 C 51 % -1.69 C
178 19-03-2021 14:45:00 7.8 C 50 % -1.96 C
179 19-03-2021 14:50:00 7.7 C 50 % -2.05 C
180 19-03-2021 14:55:00 7.5 C 51 % -1.97 C
181 19-03-2021 15:00:00 7.4 C 51 % -2.06 C
182 19-03-2021 15:05:00 7.3 C 52 % -1.89 C
183 19-03-2021 15:10:00 7.2 C 52 % -1.98 C
184 19-03-2021 15:15:00 7.2 C 52 % -1.98 C
185 19-03-2021 15:20:00 7.1 C 53 % -1.82 C
186 19-03-2021 15:25:00 7.1 C 54 % -1.56 C
187 19-03-2021 15:30:00 7.2 C 54 % -1.47 C
188 19-03-2021 15:35:00 7.4 C 51 % -2.06 C
189 19-03-2021 15:40:00 7.4 C 51 % -2.06 C
190 19-03-2021 15:45:00 7.6 C 50 % -2.14 C
191 19-03-2021 15:50:00 7.8 C 51 % -1.69 C
192 19-03-2021 15:55:00 7.8 C 50 % -1.96 C
193 19-03-2021 16:00:00 8 C 51 % -1.5 C
194 19-03-2021 16:05:00 8 C 49 % -2.05 C
195 19-03-2021 16:10:00 7.8 C 50 % -1.96 C
196 19-03-2021 16:15:00 7.8 C 47 % -2.79 C
197 19-03-2021 16:20:00 7.4 C 54 % -1.28 C
198 19-03-2021 16:25:00 6.8 C 57 % -1.11 C
199 19-03-2021 16:30:00 6.6 C 59 % -0.83 C
200 19-03-2021 16:35:00 6.5 C 58 % -1.15 C
Sensor: Nr:Datum:Temp:Feuchte:Taupunkt:
Aussen-T/F 201 19-03-2021 16:40:00 6.6 C 56 % -1.54 C
202 19-03-2021 16:45:00 6.5 C 57 % -1.39 C
203 19-03-2021 16:50:00 6.7 C 58 % -0.97 C
204 19-03-2021 16:55:00 7.1 C 56 % -1.07 C
205 19-03-2021 17:00:00 7.3 C 55 % -1.13 C
206 19-03-2021 17:05:00 7.5 C 54 % -1.19 C
207 19-03-2021 17:10:00 7.7 C 53 % -1.26 C
208 19-03-2021 17:15:00 7.7 C 52 % -1.52 C
209 19-03-2021 17:20:00 7.9 C 53 % -1.07 C
210 19-03-2021 17:25:00 8.2 C 53 % -0.8 C
211 19-03-2021 17:30:00 8.2 C 52 % -1.05 C
212 19-03-2021 17:35:00 7.9 C 52 % -1.33 C
213 19-03-2021 17:40:00 7.6 C 53 % -1.35 C
214 19-03-2021 17:45:00 7.6 C 53 % -1.35 C
215 19-03-2021 17:50:00 7.6 C 49 % -2.41 C
216 19-03-2021 17:55:00 7.7 C 48 % -2.6 C
217 19-03-2021 18:00:00 7.8 C 47 % -2.79 C
218 19-03-2021 18:05:00 7.7 C 46 % -3.17 C
219 19-03-2021 18:10:00 7.6 C 48 % -2.69 C
220 19-03-2021 18:15:00 7.4 C 50 % -2.33 C
221 19-03-2021 18:20:00 7.2 C 52 % -1.98 C
222 19-03-2021 18:25:00 6.9 C 54 % -1.75 C
223 19-03-2021 18:30:00 6.7 C 56 % -1.44 C
224 19-03-2021 18:35:00 6.4 C 58 % -1.25 C
225 19-03-2021 18:40:00 6.2 C 58 % -1.43 C
Sensor: Nr:Datum:Temp:Feuchte:Taupunkt:
Aussen-T/F 226 19-03-2021 18:45:00 6 C 58 % -1.62 C
227 19-03-2021 18:50:00 5.9 C 64 % -0.38 C
228 19-03-2021 18:55:00 5.7 C 63 % -0.78 C
229 19-03-2021 19:00:00 5.4 C 64 % -0.85 C
230 19-03-2021 19:05:00 5.3 C 67 % -0.32 C
231 19-03-2021 19:10:00 5.2 C 65 % -0.83 C
232 19-03-2021 19:15:00 5.1 C 65 % -0.92 C
233 19-03-2021 19:20:00 4.9 C 69 % -0.3 C
234 19-03-2021 19:25:00 4.8 C 71 % 0 C
235 19-03-2021 19:30:00 4.6 C 70 % -0.39 C
236 19-03-2021 19:35:00 4.4 C 72 % -0.19 C
237 19-03-2021 19:40:00 4.3 C 73 % -0.1 C
238 19-03-2021 19:45:00 4.1 C 74 % -0.11 C
239 19-03-2021 19:50:00 3.8 C 75 % -0.21 C
240 19-03-2021 19:55:00 3.6 C 76 % -0.22 C
241 19-03-2021 20:00:00 3.3 C 76 % -0.52 C
242 19-03-2021 20:05:00 3.1 C 77 % -0.53 C
243 19-03-2021 20:10:00 2.8 C 78 % -0.65 C
244 19-03-2021 20:15:00 2.7 C 79 % -0.57 C
245 19-03-2021 20:20:00 2.5 C 80 % -0.59 C
246 19-03-2021 20:25:00 2.3 C 80 % -0.79 C
247 19-03-2021 20:30:00 2.2 C 81 % -0.71 C
248 19-03-2021 20:35:00 2.1 C 81 % -0.81 C
249 19-03-2021 20:40:00 1.9 C 82 % -0.84 C
250 19-03-2021 20:45:00 1.9 C 82 % -0.84 C
Sensor: Nr:Datum:Temp:Feuchte:Taupunkt:
Aussen-T/F 251 19-03-2021 20:50:00 1.8 C 83 % -0.77 C
252 19-03-2021 20:55:00 1.8 C 83 % -0.77 C
253 19-03-2021 21:00:00 1.8 C 84 % -0.61 C
254 19-03-2021 21:05:00 1.8 C 84 % -0.61 C
255 19-03-2021 21:10:00 1.8 C 84 % -0.61 C
256 19-03-2021 21:15:00 1.8 C 85 % -0.45 C
257 19-03-2021 21:20:00 1.9 C 85 % -0.35 C
258 19-03-2021 21:25:00 1.8 C 85 % -0.45 C
259 19-03-2021 21:30:00 1.8 C 85 % -0.45 C
260 19-03-2021 21:35:00 1.7 C 85 % -0.54 C
261 19-03-2021 21:40:00 1.7 C 85 % -0.54 C
262 19-03-2021 21:45:00 1.6 C 86 % -0.48 C
263 19-03-2021 21:50:00 1.6 C 86 % -0.48 C
264 19-03-2021 21:55:00 1.6 C 86 % -0.48 C
265 19-03-2021 22:00:00 1.6 C 86 % -0.48 C
266 19-03-2021 22:05:00 1.6 C 86 % -0.48 C
267 19-03-2021 22:10:00 1.5 C 85 % -0.74 C
268 19-03-2021 22:15:00 1.4 C 85 % -0.84 C
269 19-03-2021 22:20:00 1.3 C 85 % -0.94 C
270 19-03-2021 22:25:00 1.2 C 85 % -1.03 C
271 19-03-2021 22:30:00 1.1 C 86 % -0.97 C
272 19-03-2021 22:35:00 0.9 C 86 % -1.17 C
273 19-03-2021 22:40:00 0.9 C 87 % -1.01 C
274 19-03-2021 22:45:00 0.8 C 88 % -0.96 C
275 19-03-2021 22:50:00 0.8 C 88 % -0.96 C
Sensor: Nr:Datum:Temp:Feuchte:Taupunkt:
Aussen-T/F 276 19-03-2021 22:55:00 0.8 C 88 % -0.96 C
277 19-03-2021 23:00:00 0.7 C 88 % -1.05 C
278 19-03-2021 23:05:00 0.7 C 88 % -1.05 C
279 19-03-2021 23:10:00 0.6 C 88 % -1.15 C
280 19-03-2021 23:15:00 0.5 C 88 % -1.25 C
281 19-03-2021 23:20:00 0.3 C 88 % -1.45 C
282 19-03-2021 23:25:00 0.2 C 88 % -1.55 C
283 19-03-2021 23:30:00 0.2 C 88 % -1.55 C
284 19-03-2021 23:35:00 0.2 C 89 % -1.39 C
285 19-03-2021 23:40:00 0.1 C 89 % -1.49 C
286 19-03-2021 23:45:00 0.1 C 89 % -1.49 C
287 19-03-2021 23:50:00 0.1 C 90 % -1.34 C
288 19-03-2021 23:55:00 0.1 C 90 % -1.34 C

Legende:
   Min
   Max


Maximal/Minimal-Werte vom 19.03.2021 - 19.03.2021

Sensor Min Max Avg
Temp
(Aussen-T/F)
0.1 °C
19-03-2021  23:40:00
8.2 °C
19-03-2021  17:25:00
3.85 °C
Feuchte
(Aussen-T/F)
46 %
19-03-2021  18:05:00
96 %
19-03-2021  08:15:00
77.44 %
Taupunkt
(Aussen-T/F)
-3.25 C
19-03-2021  12:55:00
2.03 C
19-03-2021  00:00:00
-0.15 C

Die Daten stammen von einer Davis Vantage Pro 2 Wetter-Station und werden unter Linux mit der Software wview2wettercgi und aufbereitet. Alle Angaben erfolgen ohne Gewähr für ihre Vollständigkeit oder Richtigkeit.
Kontakt: Rainer Krienke krienke@uni-koblenz.de . Meine Webseiten an der Uni Koblenz oder privat.
Version: $Revision: 0.78 $